Time;durP1;ratioP1;P1;durP2;ratioP2;P2;SDS_P1;SDS_P2;PMS_P1;PMS_P2;Temp;Humidity;BMP_temperature;BMP_pressure;BME280_temperature;BME280_humidity;BME280_pressure;Samples;Min_cycle;Max_cycle;Signal;HPM_P1;HPM_P2
2022/12/21 00:02:12;;;;;;;38.40;17.63;;;;;;;10.13;100.00;101000.31;2615769;36;20045;-58
2022/12/21 00:04:42;;;;;;;44.92;17.48;;;;;;;10.05;100.00;100994.72;2616354;31;20034;-58
2022/12/21 00:07:12;;;;;;;47.65;19.42;;;;;;;10.06;100.00;100991.06;2615856;31;20038;-59
2022/12/21 00:09:40;;;;;;;39.40;18.13;;;;;;;9.89;100.00;100991.63;2615449;36;20034;-59
2022/12/21 00:12:09;;;;;;;46.90;17.00;;;;;;;9.85;100.00;100985.66;2616110;36;20582;-59
2022/12/21 00:14:37;;;;;;;49.60;18.20;;;;;;;9.76;100.00;100987.28;2615249;36;20039;-58
2022/12/21 00:17:06;;;;;;;48.78;19.58;;;;;;;9.96;100.00;100995.50;2614976;36;20031;-60
2022/12/21 00:19:37;;;;;;;46.53;18.33;;;;;;;9.79;100.00;100992.38;2615662;36;20029;-58
2022/12/21 00:22:05;;;;;;;41.92;17.10;;;;;;;9.74;100.00;100991.91;2632183;36;20539;-58
2022/12/21 00:24:34;;;;;;;48.50;17.77;;;;;;;9.82;100.00;100991.28;2615021;36;20031;-59
2022/12/21 00:27:03;;;;;;;47.63;17.40;;;;;;;9.73;100.00;100987.53;2616157;36;20440;-58
2022/12/21 00:29:31;;;;;;;39.73;15.73;;;;;;;9.66;100.00;100991.72;2615738;36;20034;-58
2022/12/21 00:31:59;;;;;;;36.67;16.20;;;;;;;9.70;100.00;100995.84;2616488;36;20763;-60
2022/12/21 00:34:28;;;;;;;32.60;14.98;;;;;;;9.59;100.00;100996.72;2632473;36;20027;-59
2022/12/21 00:36:59;;;;;;;42.10;16.77;;;;;;;9.53;100.00;100993.69;2615742;36;20034;-58
2022/12/21 00:39:27;;;;;;;38.53;16.58;;;;;;;9.56;100.00;100998.81;2615886;36;20041;-59
2022/12/21 00:41:55;;;;;;;36.72;16.35;;;;;;;9.60;100.00;100993.06;2615873;36;20035;-59
2022/12/21 00:44:24;;;;;;;39.90;18.03;;;;;;;9.53;100.00;100997.22;2616033;36;20189;-58
2022/12/21 00:46:52;;;;;;;41.70;16.60;;;;;;;9.51;100.00;101004.56;2615881;36;20041;-58
2022/12/21 00:49:21;;;;;;;35.50;15.45;;;;;;;9.47;100.00;101003.13;2615337;36;20034;-58
2022/12/21 00:51:49;;;;;;;44.07;16.00;;;;;;;9.29;100.00;101005.47;2615159;36;20042;-58
2022/12/21 00:54:20;;;;;;;32.97;13.30;;;;;;;9.32;100.00;101010.59;2616104;36;20320;-58
2022/12/21 00:56:48;;;;;;;35.95;15.27;;;;;;;9.39;100.00;101011.81;2615375;36;20030;-58
2022/12/21 00:59:17;;;;;;;34.95;14.95;;;;;;;9.42;100.00;101006.19;2615177;36;20045;-58
2022/12/21 01:01:45;;;;;;;52.10;15.37;;;;;;;9.29;100.00;101002.78;2615559;36;20045;-60
2022/12/21 01:04:13;;;;;;;37.45;14.63;;;;;;;9.12;100.00;101009.50;2615405;31;20046;-58
2022/12/21 01:06:42;;;;;;;44.28;15.70;;;;;;;9.06;100.00;101015.38;2615905;36;20038;-58
2022/12/21 01:09:10;;;;;;;41.80;16.73;;;;;;;9.00;100.00;101016.72;2615027;36;20034;-60
2022/12/21 01:11:41;;;;;;;44.87;16.53;;;;;;;8.91;100.00;101012.06;2614636;36;20566;-59
2022/12/21 01:14:09;;;;;;;93.03;17.88;;;;;;;8.84;100.00;101005.47;2615660;36;20034;-59
2022/12/21 01:16:37;;;;;;;30.95;14.50;;;;;;;8.85;100.00;101002.69;2615601;36;20038;-59
2022/12/21 01:19:07;;;;;;;93.32;14.00;;;;;;;8.82;100.00;100999.38;2615084;36;20034;-59
2022/12/21 01:21:36;;;;;;;59.15;12.88;;;;;;;8.88;100.00;101002.44;2615392;31;20080;-59
2022/12/21 01:24:05;;;;;;;28.00;10.82;;;;;;;8.84;100.00;101003.63;2615147;36;20041;-60
2022/12/21 01:26:33;;;;;;;71.15;11.88;;;;;;;8.78;100.00;100998.75;2615027;36;20030;-58
2022/12/21 01:29:04;;;;;;;54.08;10.18;;;;;;;8.62;100.00;100992.91;2614978;36;20039;-58
2022/12/21 01:31:33;;;;;;;14.43;7.80;;;;;;;8.59;100.00;100997.50;2615009;36;20034;-60
2022/12/21 01:34:01;;;;;;;60.38;11.15;;;;;;;8.49;100.00;101003.72;2615582;36;20425;-59
2022/12/21 01:36:29;;;;;;;78.97;13.43;;;;;;;8.25;100.00;100999.25;2615595;36;20123;-58
2022/12/21 01:38:58;;;;;;;84.22;12.18;;;;;;;8.23;100.00;101007.41;2615317;36;20034;-59
2022/12/21 01:41:29;;;;;;;90.55;13.57;;;;;;;8.14;100.00;101009.94;2614857;36;20046;-59
2022/12/21 01:43:58;;;;;;;32.97;10.30;;;;;;;8.07;100.00;101007.72;2615337;36;20053;-59
2022/12/21 01:46:33;;;;;;;24.58;11.27;;;;;;;7.92;100.00;101021.41;2615477;36;20061;-58
2022/12/21 01:49:06;;;;;;;31.92;11.25;;;;;;;7.89;100.00;101028.72;2614924;31;20030;-58
2022/12/21 01:51:38;;;;;;;65.50;12.65;;;;;;;7.85;100.00;101037.97;2615063;36;20038;-59
2022/12/21 01:54:12;;;;;;;55.25;13.00;;;;;;;7.83;100.00;101033.69;2615255;36;20034;-59
2022/12/21 01:56:42;;;;;;;43.47;11.82;;;;;;;7.89;100.00;101036.78;2615019;36;20049;-59
2022/12/21 01:59:15;;;;;;;19.75;9.20;;;;;;;7.81;100.00;101030.28;2615028;36;20030;-60
2022/12/21 02:01:47;;;;;;;88.82;13.15;;;;;;;7.77;100.00;101026.09;2615108;36;20031;-59
2022/12/21 02:04:15;;;;;;;55.72;13.07;;;;;;;7.77;100.00;101029.63;2613640;36;20038;-59
2022/12/21 02:06:48;;;;;;;78.13;14.15;;;;;;;7.80;100.00;101020.50;2614639;36;20069;-59
2022/12/21 02:09:17;;;;;;;88.53;15.55;;;;;;;7.85;100.00;101021.88;2614572;36;20069;-57
2022/12/21 02:11:47;;;;;;;62.78;14.70;;;;;;;7.96;100.00;101022.91;2614324;36;20057;-57
2022/12/21 02:14:15;;;;;;;;;;;;;;;8.02;100.00;101030.47;2614487;31;20551;-57
2022/12/21 02:16:58;;;;;;;38.88;13.85;;;;;;;8.06;100.00;101031.97;2614761;36;19946;-59
2022/12/21 02:19:57;;;;;;;40.08;14.45;;;;;;;8.00;100.00;101022.56;2615447;36;20686;-58
2022/12/21 02:22:38;;;;;;;40.78;13.95;;;;;;;8.07;100.00;101022.97;2616210;36;20458;-59
2022/12/21 02:25:33;;;;;;;32.00;13.07;;;;;;;7.97;100.00;101017.44;2614410;36;20042;-58
2022/12/21 02:28:23;;;;;;;29.45;13.00;;;;;;;8.00;100.00;101017.19;2614967;36;20448;-60
2022/12/21 02:31:13;;;;;;;33.22;13.88;;;;;;;8.07;100.00;101013.09;2615595;36;20610;-58
2022/12/21 02:33:56;;;;;;;39.72;15.70;;;;;;;8.18;100.00;101009.56;2614748;36;20042;-58
2022/12/21 02:36:37;;;;;;;33.28;15.05;;;;;;;8.22;100.00;100994.13;2616700;36;20424;-58
2022/12/21 02:39:12;;;;;;;44.75;15.75;;;;;;;8.25;100.00;101007.28;2616643;36;20420;-59
2022/12/21 02:42:01;;;;;;;39.22;14.88;;;;;;;8.19;100.00;101011.28;2615362;36;20030;-59
2022/12/21 02:44:40;;;;;;;45.85;17.27;;;;;;;8.21;100.00;101003.13;2614744;36;20035;-59
2022/12/21 02:47:14;;;;;;;43.58;16.08;;;;;;;8.20;100.00;101012.13;2613125;36;20126;-59
2022/12/21 02:49:49;;;;;;;45.65;16.65;;;;;;;8.21;100.00;101003.13;2615334;36;20037;-59
2022/12/21 02:52:27;;;;;;;38.67;16.42;;;;;;;8.27;100.00;101013.38;2615615;36;20031;-59
2022/12/21 02:55:00;;;;;;;39.40;15.80;;;;;;;8.35;100.00;101005.63;2615881;36;20284;-58
2022/12/21 02:57:35;;;;;;;40.40;13.23;;;;;;;8.31;100.00;101006.81;2615103;31;20133;-59
2022/12/21 03:00:05;;;;;;;36.95;15.82;;;;;;;8.27;100.00;101002.66;2615717;36;20034;-59
2022/12/21 03:06:00;;;;;;;32.00;14.25;;;;;;;8.26;100.00;101000.97;2615787;36;20520;-60
2022/12/21 03:08:40;;;;;;;35.25;14.88;;;;;;;8.41;100.00;101002.47;2616259;31;20409;-59
2022/12/21 03:11:10;;;;;;;40.00;15.32;;;;;;;8.28;100.00;100993.66;2615700;36;20542;-58
2022/12/21 03:13:44;;;;;;;;;;;;;;;8.31;100.00;100993.41;2615955;36;20034;-58
2022/12/21 03:16:18;;;;;;;39.88;16.38;;;;;;;8.48;100.00;100991.28;2614384;36;19946;-57
2022/12/21 03:18:59;;;;;;;45.17;17.00;;;;;;;8.47;100.00;100992.28;2614886;36;20035;-57
2022/12/21 03:21:35;;;;;;;43.20;17.67;;;;;;;8.51;100.00;100999.09;2616062;36;20026;-59
2022/12/21 03:24:12;;;;;;;38.47;15.70;;;;;;;8.39;100.00;100991.00;2615063;36;20037;-57
2022/12/21 03:26:45;;;;;;;39.40;16.85;;;;;;;8.31;100.00;100993.41;2614033;31;20042;-58
2022/12/21 03:29:18;;;;;;;35.45;14.68;;;;;;;8.28;100.00;100990.13;2615755;36;20129;-57
2022/12/21 03:31:52;;;;;;;36.17;16.25;;;;;;;8.29;100.00;100990.00;2614691;31;20030;-58
2022/12/21 03:34:27;;;;;;;32.65;14.38;;;;;;;8.32;100.00;100991.56;2615434;31;20043;-58
2022/12/21 03:37:01;;;;;;;32.95;15.65;;;;;;;8.28;100.00;100988.28;2615465;36;20038;-60
2022/12/21 03:39:32;;;;;;;34.13;14.95;;;;;;;8.21;100.00;100987.03;2614505;36;20031;-58
2022/12/21 03:42:08;;;;;;;38.78;15.85;;;;;;;8.22;100.00;100989.59;2612694;36;20029;-57
2022/12/21 03:44:45;;;;;;;40.65;16.13;;;;;;;8.20;100.00;100991.56;2614885;36;20031;-58
2022/12/21 03:47:18;;;;;;;44.42;17.35;;;;;;;8.23;100.00;100990.47;2614770;31;20042;-58
2022/12/21 03:49:54;;;;;;;46.50;17.08;;;;;;;8.29;100.00;100983.75;2615502;36;20042;-58
2022/12/21 03:52:25;;;;;;;35.22;15.07;;;;;;;8.31;100.00;100980.00;2615276;36;20038;-58
2022/12/21 03:55:00;;;;;;;34.03;15.75;;;;;;;8.31;100.00;100988.03;2614638;36;20038;-58
2022/12/21 03:57:30;;;;;;;33.08;14.98;;;;;;;8.31;100.00;100990.72;2614292;36;20539;-58
2022/12/21 04:00:03;;;;;;;46.40;17.08;;;;;;;8.50;100.00;100979.47;2614264;36;20062;-58
2022/12/21 04:02:39;;;;;;;34.30;14.32;;;;;;;8.44;100.00;100969.22;2615461;36;20031;-58
2022/12/21 04:05:15;;;;;;;45.08;15.90;;;;;;;8.34;100.00;100961.00;2615963;31;20439;-59
2022/12/21 04:07:44;;;;;;;39.78;15.30;;;;;;;8.40;100.00;100963.19;2615522;36;20035;-57
2022/12/21 04:10:16;;;;;;;37.35;13.70;;;;;;;8.26;100.00;100952.69;2614589;36;20042;-60
2022/12/21 04:12:43;;;;;;;37.65;14.68;;;;;;;8.13;100.00;100958.16;2615323;36;20042;-57
2022/12/21 04:15:15;;;;;;;42.17;15.48;;;;;;;8.11;100.00;100954.72;2614960;31;20516;-59
2022/12/21 04:17:45;;;;;;;41.58;15.23;;;;;;;8.13;100.00;100962.66;2614784;31;20034;-58
2022/12/21 04:20:16;;;;;;;43.15;14.80;;;;;;;8.08;100.00;100965.66;2615364;36;20030;-58
2022/12/21 04:28:15;;;;;;;46.08;15.45;;;;;;;8.20;100.00;100969.25;2615082;36;20741;-58
2022/12/21 04:30:45;;;;;;;43.13;16.30;;;;;;;8.23;100.00;100974.41;2615234;36;20034;-59
2022/12/21 04:33:15;;;;;;;49.42;17.63;;;;;;;8.22;100.00;100972.69;2615088;36;20076;-58
2022/12/21 04:38:29;;;;;;;46.10;17.85;;;;;;;8.32;100.00;100957.59;2615549;31;20034;-59
2022/12/21 04:40:58;;;;;;;48.65;16.67;;;;;;;8.33;100.00;100953.94;2613708;36;20038;-58
2022/12/21 04:43:27;;;;;;;48.70;17.25;;;;;;;8.38;100.00;100949.06;2615097;36;20022;-58
2022/12/21 04:46:02;;;;;;;51.50;17.77;;;;;;;8.57;100.00;100951.19;2614320;36;20057;-57
2022/12/21 04:48:31;;;;;;;45.70;18.20;;;;;;;8.50;100.00;100957.16;2614716;36;20038;-58
2022/12/21 04:51:08;;;;;;;52.15;17.38;;;;;;;8.47;100.00;100950.19;2614491;36;20037;-59
2022/12/21 04:53:38;;;;;;;40.83;16.63;;;;;;;8.38;100.00;100954.41;2615509;36;20427;-58
2022/12/21 04:56:07;;;;;;;48.53;18.73;;;;;;;8.36;100.00;100959.06;2615058;36;20034;-57
2022/12/21 04:58:36;;;;;;;54.05;18.25;;;;;;;8.33;100.00;100964.66;2615965;36;20431;-60
2022/12/21 05:01:09;;;;;;;45.85;17.98;;;;;;;8.39;100.00;100963.31;2613780;36;20034;-58
2022/12/21 05:03:38;;;;;;;52.60;17.45;;;;;;;8.37;100.00;100960.75;2614687;36;20034;-60
2022/12/21 05:06:10;;;;;;;52.50;19.17;;;;;;;8.34;100.00;100955.63;2616305;36;20455;-59
2022/12/21 05:08:38;;;;;;;58.42;19.45;;;;;;;8.31;100.00;100955.03;2615093;36;20049;-57
2022/12/21 05:11:11;;;;;;;57.38;19.88;;;;;;;8.31;100.00;100971.97;2612981;36;20058;-58
2022/12/21 05:13:40;;;;;;;52.15;19.42;;;;;;;8.37;100.00;100955.38;2615180;36;20065;-58
2022/12/21 05:16:11;;;;;;;57.08;19.90;;;;;;;8.32;100.00;100954.91;2614803;36;20035;-59
2022/12/21 05:18:39;;;;;;;52.55;18.65;;;;;;;8.50;100.00;100965.22;2615379;36;20034;-59
2022/12/21 05:21:10;;;;;;;60.10;19.97;;;;;;;8.32;100.00;100957.59;2614775;36;20035;-57
2022/12/21 05:23:39;;;;;;;59.40;18.55;;;;;;;8.40;100.00;100955.16;2615777;36;20038;-58
2022/12/21 05:26:08;;;;;;;51.13;19.42;;;;;;;8.30;100.00;100953.31;2614717;36;20042;-60
2022/12/21 05:28:37;;;;;;;;;;;;;;;8.39;100.00;100952.59;2614531;36;20491;-60
2022/12/21 05:31:05;;;;;;;56.83;20.52;;;;;;;8.41;100.00;100951.50;2615142;36;19954;-58
2022/12/21 05:33:34;;;;;;;75.50;22.73;;;;;;;8.28;100.00;100949.91;2614915;36;20031;-59
2022/12/21 05:36:04;;;;;;;58.97;19.03;;;;;;;8.31;100.00;100944.28;2615850;36;20041;-59
2022/12/21 05:38:35;;;;;;;67.38;21.38;;;;;;;8.23;100.00;100947.59;2615757;36;20687;-58
2022/12/21 05:41:03;;;;;;;67.88;21.88;;;;;;;8.29;100.00;100949.78;2614047;36;20038;-58
2022/12/21 05:43:32;;;;;;;62.42;22.08;;;;;;;8.28;100.00;100945.38;2615339;36;20041;-58
2022/12/21 05:46:03;;;;;;;72.10;23.92;;;;;;;8.31;100.00;100944.28;2614924;36;20034;-55
2022/12/21 05:48:31;;;;;;;71.65;23.33;;;;;;;8.39;100.00;100942.72;2614960;36;20582;-58
2022/12/21 05:51:00;;;;;;;81.27;24.30;;;;;;;8.29;100.00;100939.06;2613513;31;20436;-58
2022/12/21 05:53:28;;;;;;;73.07;24.42;;;;;;;8.35;100.00;100943.94;2615501;36;20287;-59
2022/12/21 05:55:59;;;;;;;73.47;22.65;;;;;;;8.38;100.00;100945.53;2613974;36;20092;-58
2022/12/21 05:58:27;;;;;;;81.32;24.25;;;;;;;8.58;100.00;100950.22;2615427;36;20042;-57
2022/12/21 06:00:56;;;;;;;69.18;22.05;;;;;;;8.46;100.00;100945.78;2614100;36;20359;-60
2022/12/21 06:03:24;;;;;;;86.35;24.92;;;;;;;8.44;100.00;100941.53;2612800;36;20073;-60
2022/12/21 06:05:52;;;;;;;103.60;24.80;;;;;;;8.38;100.00;100941.00;2615278;36;20543;-59
2022/12/21 06:08:21;;;;;;;80.18;23.35;;;;;;;8.59;100.00;100938.50;2613722;36;20042;-60
2022/12/21 06:10:49;;;;;;;99.63;25.47;;;;;;;8.41;100.00;100942.59;2615058;31;20554;-60
2022/12/21 06:13:20;;;;;;;101.88;24.33;;;;;;;8.44;100.00;100949.56;2614685;36;20054;-59
2022/12/21 06:15:48;;;;;;;123.97;26.98;;;;;;;8.36;100.00;100942.97;2614447;31;20026;-58
2022/12/21 06:18:17;;;;;;;116.90;25.65;;;;;;;8.45;100.00;100949.47;2614845;36;20575;-58
2022/12/21 06:20:53;;;;;;;100.53;24.67;;;;;;;8.44;100.00;100939.72;2614306;36;20034;-58
2022/12/21 06:23:21;;;;;;;107.85;25.70;;;;;;;8.56;100.00;100948.63;2615435;36;20057;-59
2022/12/21 06:25:50;;;;;;;116.60;27.20;;;;;;;8.55;100.00;100958.50;2614326;36;20166;-57
2022/12/21 06:28:21;;;;;;;84.72;24.45;;;;;;;8.59;100.00;100961.78;2615102;36;20574;-59
2022/12/21 06:30:50;;;;;;;89.60;25.05;;;;;;;8.51;100.00;100950.78;2610839;36;20042;-59
2022/12/21 06:33:18;;;;;;;134.02;24.95;;;;;;;8.49;100.00;100953.59;2615181;36;20039;-60
2022/12/21 06:35:47;;;;;;;99.10;26.03;;;;;;;8.68;100.00;100957.53;2615199;36;20026;-60
2022/12/21 06:38:15;;;;;;;149.18;25.40;;;;;;;8.62;100.00;100941.94;2615363;36;20714;-59
2022/12/21 06:40:43;;;;;;;147.32;25.70;;;;;;;8.60;100.00;100939.38;2614609;36;20042;-59
2022/12/21 06:43:12;;;;;;;155.82;24.33;;;;;;;8.54;100.00;100945.22;2615784;36;20038;-58
2022/12/21 06:45:43;;;;;;;105.60;24.50;;;;;;;8.55;100.00;100952.28;2614133;36;20039;-59
2022/12/21 06:48:11;;;;;;;122.65;25.83;;;;;;;8.59;100.00;100959.09;2615077;36;20073;-59
2022/12/21 06:50:39;;;;;;;124.47;24.17;;;;;;;8.58;100.00;100952.03;2613882;36;20038;-58
2022/12/21 06:53:08;;;;;;;121.07;24.70;;;;;;;8.64;100.00;100962.25;2614061;36;20031;-59
2022/12/21 06:55:36;;;;;;;123.15;22.98;;;;;;;8.59;100.00;100957.28;2614083;36;20034;-59
2022/12/21 06:58:04;;;;;;;117.78;23.60;;;;;;;8.62;100.00;100948.13;2615129;36;20428;-60
2022/12/21 07:00:33;;;;;;;168.55;24.98;;;;;;;8.76;100.00;100945.22;2615668;36;20042;-60
2022/12/21 07:03:04;;;;;;;124.03;25.80;;;;;;;8.72;100.00;100948.28;2613774;36;20030;-58
2022/12/21 07:05:33;;;;;;;112.93;23.27;;;;;;;8.70;100.00;100944.84;2615076;31;20034;-57
2022/12/21 07:08:02;;;;;;;112.82;23.08;;;;;;;8.63;100.00;100951.66;2615794;36;20141;-60
2022/12/21 07:10:30;;;;;;;114.80;24.17;;;;;;;8.86;100.00;100950.72;2615960;36;20039;-60
2022/12/21 07:12:59;;;;;;;122.30;24.13;;;;;;;8.80;100.00;100955.69;2615533;36;20053;-58
2022/12/21 07:15:27;;;;;;;127.90;25.23;;;;;;;8.84;100.00;100957.16;2615153;36;20034;-58
2022/12/21 07:17:55;;;;;;;104.22;21.98;;;;;;;8.83;100.00;100956.28;2615731;36;20042;-58
2022/12/21 07:20:26;;;;;;;102.55;24.60;;;;;;;8.83;100.00;100950.09;2616081;36;20034;-59
2022/12/21 07:22:55;;;;;;;128.77;25.88;;;;;;;8.95;100.00;100954.47;2616256;36;20042;-59
2022/12/21 07:25:23;;;;;;;100.13;24.50;;;;;;;9.11;100.00;100952.28;2614805;36;20629;-58
2022/12/21 07:27:51;;;;;;;81.70;23.83;;;;;;;9.23;100.00;100961.16;2615831;36;20035;-59
2022/12/21 07:30:20;;;;;;;109.00;26.38;;;;;;;9.31;100.00;100971.28;2615297;36;20046;-60
2022/12/21 07:32:48;;;;;;;88.23;22.90;;;;;;;9.15;100.00;100968.13;2615450;36;20037;-58
2022/12/21 07:35:17;;;;;;;94.15;22.48;;;;;;;8.90;100.00;100970.09;2616090;36;20035;-59
2022/12/21 07:37:48;;;;;;;81.65;21.52;;;;;;;8.97;100.00;100974.00;2616083;36;20118;-58
2022/12/21 07:40:18;;;;;;;82.18;22.23;;;;;;;9.10;100.00;100968.50;2613247;36;20539;-57
2022/12/21 07:42:47;;;;;;;121.03;25.25;;;;;;;8.99;100.00;100972.03;2615062;31;20035;-58
2022/12/21 07:45:16;;;;;;;103.82;23.17;;;;;;;9.07;100.00;100974.13;2612421;36;20034;-58
2022/12/21 07:47:47;;;;;;;87.50;22.80;;;;;;;9.12;100.00;100980.81;2615981;36;20427;-58
2022/12/21 07:50:15;;;;;;;106.68;24.45;;;;;;;9.03;100.00;100988.78;2614605;36;20065;-57
2022/12/21 07:52:44;;;;;;;97.47;22.55;;;;;;;9.00;100.00;100987.19;2615348;36;20050;-58
2022/12/21 07:55:14;;;;;;;94.72;23.30;;;;;;;8.93;100.00;100994.00;2613959;36;20061;-60
2022/12/21 07:57:43;;;;;;;97.97;22.23;;;;;;;9.00;100.00;100989.84;2612853;36;20023;-58
2022/12/21 08:00:12;;;;;;;97.07;23.67;;;;;;;9.03;100.00;100988.78;2614806;36;20058;-59
2022/12/21 08:02:41;;;;;;;101.25;23.60;;;;;;;8.98;100.00;100985.59;2614733;36;20450;-58
2022/12/21 08:05:10;;;;;;;86.65;21.65;;;;;;;8.91;100.00;100991.44;2614561;36;20034;-59
2022/12/21 08:07:38;;;;;;;83.78;21.90;;;;;;;8.90;100.00;100994.25;2615313;36;20034;-59
2022/12/21 08:10:08;;;;;;;86.97;23.92;;;;;;;9.05;100.00;100984.97;2614813;36;20030;-58
2022/12/21 08:12:39;;;;;;;97.93;22.48;;;;;;;9.12;100.00;100972.75;2590449;36;20535;-59
2022/12/21 08:15:09;;;;;;;100.93;24.80;;;;;;;9.07;100.00;100974.13;2606775;36;20049;-59
2022/12/21 08:17:37;;;;;;;90.72;23.40;;;;;;;8.99;100.00;100966.66;2615239;36;20030;-59
2022/12/21 08:20:07;;;;;;;94.43;24.70;;;;;;;8.91;100.00;100985.22;2614721;36;20060;-57
2022/12/21 08:22:35;;;;;;;86.03;23.95;;;;;;;9.04;100.00;100985.97;2611506;36;20424;-58
2022/12/21 08:25:03;;;;;;;93.70;25.57;;;;;;;8.97;100.00;100984.75;2612785;36;20050;-58
2022/12/21 08:27:32;;;;;;;105.05;26.70;;;;;;;8.92;100.00;100989.59;2615979;36;20524;-59
2022/12/21 08:30:03;;;;;;;109.72;26.10;;;;;;;9.11;100.00;100987.19;2615543;36;20039;-60
2022/12/21 08:32:31;;;;;;;97.50;27.20;;;;;;;9.04;100.00;100977.91;2615869;36;20435;-59
2022/12/21 08:35:00;;;;;;;97.90;26.20;;;;;;;9.08;100.00;100974.00;2614447;36;20035;-58
2022/12/21 08:37:28;;;;;;;94.05;26.73;;;;;;;9.26;100.00;100965.41;2615582;36;20415;-58
2022/12/21 08:39:56;;;;;;;118.00;27.95;;;;;;;9.33;100.00;100973.81;2613982;36;20039;-58
2022/12/21 08:42:25;;;;;;;108.40;28.27;;;;;;;9.22;100.00;100988.13;2615262;36;20038;-60
2022/12/21 08:44:53;;;;;;;101.45;26.95;;;;;;;9.02;100.00;100995.94;2615144;36;20038;-61
2022/12/21 08:47:24;;;;;;;98.50;28.00;;;;;;;9.14;100.00;100993.25;2614398;36;20554;-59
2022/12/21 08:49:52;;;;;;;106.70;30.05;;;;;;;9.02;100.00;100985.22;2614667;36;20022;-60
2022/12/21 08:52:21;;;;;;;99.22;27.67;;;;;;;9.10;100.00;100974.72;2614827;36;20034;-59
2022/12/21 08:54:49;;;;;;;98.72;29.85;;;;;;;9.25;100.00;100982.53;2614693;36;20026;-59
2022/12/21 08:57:17;;;;;;;92.22;27.85;;;;;;;9.24;100.00;100986.19;2615573;31;20037;-61
2022/12/21 08:59:46;;;;;;;107.78;30.38;;;;;;;9.32;100.00;100994.47;2615553;36;20431;-61
2022/12/21 09:02:14;;;;;;;99.00;31.10;;;;;;;9.05;100.00;100998.38;2614542;36;20023;-58
2022/12/21 09:04:45;;;;;;;91.55;27.67;;;;;;;9.34;100.00;100997.88;2614249;36;20045;-58
2022/12/21 09:07:14;;;;;;;97.10;32.20;;;;;;;9.31;100.00;101000.81;2613937;36;20037;-59
2022/12/21 09:09:42;;;;;;;94.60;28.25;;;;;;;9.31;100.00;100998.13;2615093;36;20057;-58
2022/12/21 09:12:11;;;;;;;83.65;29.58;;;;;;;9.18;100.00;100994.72;2615684;36;20440;-59
2022/12/21 09:14:39;;;;;;;87.97;29.02;;;;;;;9.08;100.00;100992.78;2608612;36;20042;-59
2022/12/21 09:17:07;;;;;;;80.65;26.45;;;;;;;9.14;100.00;100983.38;2608465;36;20042;-58
2022/12/21 09:19:39;;;;;;;71.07;25.63;;;;;;;9.03;100.00;100984.25;2614875;36;20041;-61
2022/12/21 09:22:12;;;;;;;84.38;29.13;;;;;;;9.03;100.00;100994.97;2614645;36;20577;-59
2022/12/21 09:24:40;;;;;;;82.78;28.58;;;;;;;8.91;100.00;100995.97;2614035;36;20721;-59
2022/12/21 09:27:08;;;;;;;70.43;28.42;;;;;;;8.90;100.00;100980.84;2614624;36;20038;-59
2022/12/21 09:29:37;;;;;;;75.63;29.02;;;;;;;9.07;100.00;100980.34;2614799;36;20035;-59
2022/12/21 09:32:05;;;;;;;88.03;29.67;;;;;;;9.06;100.00;100975.09;2614405;36;20034;-58
2022/12/21 09:34:34;;;;;;;79.73;27.37;;;;;;;8.95;100.00;100975.94;2614543;36;20042;-58
2022/12/21 09:37:02;;;;;;;82.22;28.33;;;;;;;8.91;100.00;100971.81;2613977;36;20327;-59
2022/12/21 09:39:33;;;;;;;74.13;27.50;;;;;;;8.91;100.00;100969.13;2614166;36;20033;-59
2022/12/21 09:42:10;;;;;;;76.95;27.20;;;;;;;8.80;100.00;100966.44;2615891;31;20038;-61
2022/12/21 09:45:09;;;;;;;82.40;29.23;;;;;;;8.73;100.00;100966.94;2614522;36;20680;-60
2022/12/21 09:47:44;;;;;;;80.95;30.20;;;;;;;8.85;100.00;100974.97;2614303;36;20038;-61
2022/12/21 09:50:18;;;;;;;73.40;28.13;;;;;;;8.92;100.00;100962.75;2613481;31;20042;-60
2022/12/21 09:52:50;;;;;;;80.43;29.92;;;;;;;8.86;100.00;100958.75;2613719;36;20550;-59
2022/12/21 09:55:25;;;;;;;79.28;28.65;;;;;;;8.94;100.00;100963.50;2614546;36;20435;-58
2022/12/21 09:57:57;;;;;;;77.97;28.60;;;;;;;8.69;100.00;100965.47;2614805;36;20034;-59
2022/12/21 10:00:27;;;;;;;76.97;29.70;;;;;;;8.73;100.00;100977.66;2615119;36;20138;-61
2022/12/21 10:03:18;;;;;;;76.90;28.95;;;;;;;8.80;100.00;100969.13;2614270;36;20034;-59
2022/12/21 10:06:15;;;;;;;82.85;29.83;;;;;;;8.86;100.00;100976.69;2615907;36;20035;-59
2022/12/21 10:09:02;;;;;;;78.25;28.58;;;;;;;8.88;100.00;100964.00;2614395;36;20022;-59
2022/12/21 10:11:54;;;;;;;85.95;30.40;;;;;;;8.96;100.00;100966.91;2613707;36;20042;-59
2022/12/21 10:14:32;;;;;;;82.35;30.48;;;;;;;9.01;100.00;100972.78;2613541;36;20465;-59
2022/12/21 10:17:08;;;;;;;82.80;31.45;;;;;;;9.07;100.00;100977.66;2605281;36;20038;-59
2022/12/21 10:19:53;;;;;;;77.60;28.90;;;;;;;8.99;100.00;100963.97;2614151;36;20035;-58
2022/12/21 10:22:26;;;;;;;91.00;30.58;;;;;;;9.01;100.00;100962.03;2613868;36;20039;-58
2022/12/21 10:24:57;;;;;;;69.70;30.33;;;;;;;9.14;100.00;100959.19;2607208;36;20034;-58
2022/12/21 10:27:35;;;;;;;74.75;27.50;;;;;;;9.06;100.00;100951.78;2613988;36;20475;-59
2022/12/21 10:30:04;;;;;;;77.60;29.08;;;;;;;9.02;100.00;100947.63;2614145;36;20034;-59
2022/12/21 10:32:36;;;;;;;77.95;30.55;;;;;;;8.98;100.00;100950.69;2614284;36;20548;-59
2022/12/21 10:35:19;;;;;;;76.43;28.33;;;;;;;8.94;100.00;100950.09;2615130;36;20428;-57
2022/12/21 10:37:51;;;;;;;73.82;28.35;;;;;;;8.87;100.00;100943.50;2615157;36;20038;-58
2022/12/21 10:40:21;;;;;;;78.75;28.85;;;;;;;8.93;100.00;100937.63;2615502;36;20035;-58
2022/12/21 10:42:54;;;;;;;75.35;29.23;;;;;;;9.01;100.00;100950.44;2615158;36;20034;-59
2022/12/21 10:45:26;;;;;;;68.35;30.40;;;;;;;9.01;100.00;100945.94;2614829;36;20034;-58
2022/12/21 10:47:54;;;;;;;71.57;30.23;;;;;;;8.94;100.00;100958.16;2615416;36;20041;-59
2022/12/21 10:50:26;;;;;;;73.63;30.25;;;;;;;8.97;100.00;100943.63;2615125;36;20022;-58
2022/12/21 10:52:56;;;;;;;69.03;30.35;;;;;;;8.89;100.00;100952.28;2614241;36;20038;-60
2022/12/21 10:55:33;;;;;;;74.88;30.80;;;;;;;8.93;100.00;100945.69;2615212;36;20413;-59
2022/12/21 10:58:16;;;;;;;66.95;30.20;;;;;;;8.93;100.00;100948.38;2615572;36;20053;-59
2022/12/21 11:00:53;;;;;;;73.88;30.30;;;;;;;8.87;100.00;100948.88;2616009;31;20471;-58
2022/12/21 11:03:28;;;;;;;74.78;29.35;;;;;;;8.94;100.00;100948.25;2614550;36;20447;-58
2022/12/21 11:05:57;;;;;;;72.47;27.98;;;;;;;9.08;100.00;100943.59;2614280;36;20034;-60
2022/12/21 11:08:28;;;;;;;69.72;28.40;;;;;;;9.02;100.00;100944.09;2615160;36;20037;-60
2022/12/21 11:11:00;;;;;;;75.28;29.52;;;;;;;9.05;100.00;100939.31;2615440;36;20034;-60
2022/12/21 11:13:34;;;;;;;63.20;27.55;;;;;;;9.35;100.00;100935.13;2615175;36;20034;-59
2022/12/21 11:16:06;;;;;;;62.40;27.77;;;;;;;9.50;100.00;100942.91;2615246;36;20049;-58
2022/12/21 11:18:42;;;;;;;64.82;28.33;;;;;;;9.52;100.00;100946.31;2613651;31;20035;-58
2022/12/21 11:21:23;;;;;;;63.53;27.27;;;;;;;9.34;100.00;100933.41;2614565;36;20038;-59
2022/12/21 11:24:00;;;;;;;62.28;25.83;;;;;;;9.45;100.00;100941.44;2615027;36;20039;-60
2022/12/21 11:26:32;;;;;;;57.80;24.08;;;;;;;9.55;100.00;100943.38;2608660;36;20030;-58
2022/12/21 11:29:08;;;;;;;55.20;24.75;;;;;;;9.46;100.00;100943.13;2615162;36;20419;-58
2022/12/21 11:31:38;;;;;;;50.17;22.85;;;;;;;9.46;100.00;100942.28;2614150;36;20501;-60
2022/12/21 11:34:06;;;;;;;50.97;22.80;;;;;;;9.59;100.00;100939.44;2607891;36;20038;-60
2022/12/21 11:36:35;;;;;;;40.17;20.60;;;;;;;9.53;100.00;100943.50;2615781;36;20125;-58
2022/12/21 11:39:17;;;;;;;45.08;19.90;;;;;;;9.49;100.00;100946.56;2614784;36;20050;-58
2022/12/21 11:41:53;;;;;;;36.33;18.95;;;;;;;9.43;100.00;100938.00;2614712;36;20038;-59